CheckWX is a tool to help pilots better visualize weather data.  It is not intended as a substitute for an official pre-flight weather briefing.

00:22:57 UTC

LXGB METAR
Gibraltar Airport
Gibraltar, Gibraltar
Current

33 mins ago

LXGB 112350Z AUTO 27015KT 9999 // NCD 17/14 Q1016
Observed
Nov-11 @ 23:50 UTC
Wind
  • 270° at 15 KTS
Visibility
10,000+ meters
Flight Rules
VFR
Cloud Levels
  • Clear skies
Temperature
17°C / 63°F
Dewpoint
14°C / 57°F
Humidity
83%
Altimeter
30" Hg
Pressure
1015.92 hPa
Previous

2 hours ago

LXGB 112250Z AUTO 26014KT 9999 // NCD 17/15 Q1017
Observed
Nov-11 @ 22:50 UTC
Wind
  • 260° at 14 KTS
Visibility
10,000+ meters
Flight Rules
VFR
Cloud Levels
  • Clear skies
Temperature
17°C / 63°F
Dewpoint
15°C / 59°F
Humidity
88%
Altimeter
30.03" Hg
Pressure
1016.92 hPa
Previous

3 hours ago

LXGB 112150Z AUTO 28010KT 9999 // SCT016/// 18/15 Q1017
Observed
Nov-11 @ 21:50 UTC
Wind
  • 280° at 10 KTS
Visibility
10,000+ meters
Flight Rules
VFR
Cloud Levels
  • Scattered at 1,600' AGL
Temperature
18°C / 64°F
Dewpoint
15°C / 59°F
Humidity
83%
Altimeter
30.03" Hg
Pressure
1016.92 hPa